Time;durP1;ratioP1;P1;durP2;ratioP2;P2;SDS_P1;SDS_P2;PMS_P1;PMS_P2;Temp;Humidity;BMP_temperature;BMP_pressure;BME280_temperature;BME280_humidity;BME280_pressure;Samples;Min_cycle;Max_cycle;Signal;HPM_P1;HPM_P2
2021/11/12 00:13:45;;;;;;;8.85;4.72;;;10.00;87.80;;;;;;4814104;29;20066;-71
2021/11/12 00:15:56;;;;;;;11.00;4.90;;;10.00;87.70;;;;;;4816279;29;20054;-71
2021/11/12 00:18:28;;;;;;;9.77;4.90;;;10.00;87.60;;;;;;4824051;29;20050;-71
2021/11/12 00:20:57;;;;;;;7.40;4.72;;;10.00;87.50;;;;;;4825974;29;20061;-72
2021/11/12 00:23:27;;;;;;;6.22;3.60;;;10.00;87.30;;;;;;4824690;29;20045;-71
2021/11/12 00:25:56;;;;;;;10.65;5.05;;;9.90;87.40;;;;;;4825658;29;20051;-71
2021/11/12 00:28:27;;;;;;;8.05;4.95;;;9.90;87.40;;;;;;4799474;29;20509;-71
2021/11/12 00:31:26;;;;;;;7.43;4.53;;;9.90;87.40;;;;;;4825825;29;20046;-71
2021/11/12 00:38:58;;;;;;;10.55;4.30;;;10.00;87.30;;;;;;4825594;29;20054;-71
2021/11/12 00:41:40;;;;;;;9.70;4.07;;;10.00;87.20;;;;;;4824675;29;20057;-71
2021/11/12 00:47:01;;;;;;;8.40;4.63;;;10.00;87.00;;;;;;4825022;29;20046;-71
2021/11/12 00:49:31;;;;;;;8.85;4.95;;;10.00;87.00;;;;;;4823276;29;20057;-71
2021/11/12 00:52:12;;;;;;;8.07;5.05;;;10.00;87.10;;;;;;4824300;29;20051;-71
2021/11/12 00:54:39;;;;;;;10.55;4.93;;;10.00;87.20;;;;;;4825140;29;20050;-70
2021/11/12 00:57:08;;;;;;;7.20;4.63;;;9.90;87.30;;;;;;4824255;29;20058;-71
2021/11/12 00:59:35;;;;;;;7.47;4.93;;;9.80;87.50;;;;;;4824405;29;20058;-71
2021/11/12 01:02:04;;;;;;;9.20;4.82;;;9.80;87.60;;;;;;4825035;29;20034;-71
2021/11/12 01:04:32;;;;;;;8.98;5.45;;;9.80;87.70;;;;;;4824110;29;20054;-72
2021/11/12 01:07:00;;;;;;;10.38;5.10;;;9.70;87.80;;;;;;4824854;29;20412;-71
2021/11/12 01:09:28;;;;;;;12.18;5.70;;;9.70;88.00;;;;;;4824749;29;20054;-71
2021/11/12 01:11:55;;;;;;;9.70;5.00;;;9.70;88.10;;;;;;4828431;29;20047;-71
2021/11/12 01:14:25;;;;;;;7.13;4.90;;;9.70;88.20;;;;;;4824994;29;20054;-71
2021/11/12 01:16:53;;;;;;;9.10;5.10;;;9.70;88.30;;;;;;4823917;29;20046;-71
2021/11/12 01:19:21;;;;;;;9.13;5.07;;;9.60;88.20;;;;;;4825869;29;20050;-71
2021/11/12 01:21:49;;;;;;;8.40;4.65;;;9.60;88.20;;;;;;4826446;29;20046;-71
2021/11/12 01:24:17;;;;;;;8.85;5.07;;;9.50;88.30;;;;;;4827260;29;20050;-71
2021/11/12 01:26:44;;;;;;;9.93;4.97;;;9.40;88.40;;;;;;4822581;29;20065;-73
2021/11/12 01:29:12;;;;;;;11.07;5.00;;;9.40;88.60;;;;;;4837104;29;20050;-71
2021/11/12 01:31:41;;;;;;;8.73;4.85;;;9.40;88.70;;;;;;4823807;29;20424;-71
2021/11/12 01:34:11;;;;;;;10.48;4.57;;;9.30;88.70;;;;;;4823633;29;20409;-72
2021/11/12 01:36:45;;;;;;;9.30;5.13;;;9.30;88.90;;;;;;4814182;29;20069;-71
2021/11/12 01:39:16;;;;;;;8.52;4.72;;;9.30;88.90;;;;;;4823462;29;20386;-71
2021/11/12 01:41:49;;;;;;;6.55;4.47;;;9.30;89.00;;;;;;4824026;29;20067;-71
2021/11/12 01:44:26;;;;;;;8.15;4.10;;;9.30;89.00;;;;;;4822720;29;20065;-72
2021/11/12 01:47:22;;;;;;;7.85;4.22;;;9.30;89.10;;;;;;4821577;29;20061;-71
2021/11/12 01:49:45;;;;;;;6.07;3.90;;;9.30;89.20;;;;;;4823873;29;20054;-71
2021/11/12 01:52:19;;;;;;;8.07;3.83;;;9.30;89.20;;;;;;4822958;29;20062;-72
2021/11/12 02:00:16;;;;;;;6.88;4.28;;;9.30;89.00;;;;;;4823567;29;20065;-71
2021/11/12 02:02:44;;;;;;;6.50;4.00;;;9.30;89.00;;;;;;4823674;29;20051;-71
2021/11/12 02:05:14;;;;;;;8.00;3.63;;;9.30;88.90;;;;;;4822104;29;20073;-71
2021/11/12 02:07:42;;;;;;;7.30;3.75;;;9.30;88.90;;;;;;4835750;29;20058;-71
2021/11/12 02:10:16;;;;;;;6.82;3.88;;;9.30;88.80;;;;;;4807800;29;20109;-71
2021/11/12 02:13:01;;;;;;;10.63;4.22;;;9.40;88.70;;;;;;4821505;29;20054;-71
2021/11/12 02:15:30;;;;;;;7.35;3.28;;;9.50;88.60;;;;;;4822632;29;20050;-71
2021/11/12 02:18:06;;;;;;;9.80;3.30;;;9.50;88.20;;;;;;4816752;29;20054;-71
2021/11/12 02:20:44;;;;;;;7.28;3.65;;;9.60;88.00;;;;;;4804322;29;20425;-71
2021/11/12 02:23:12;;;;;;;6.50;3.10;;;9.60;87.80;;;;;;4821285;29;20050;-70
2021/11/12 02:25:44;;;;;;;7.05;3.42;;;9.70;87.70;;;;;;4821029;29;20057;-70
2021/11/12 02:28:15;;;;;;;5.75;3.00;;;9.70;87.50;;;;;;4831662;29;20372;-70
2021/11/12 02:30:48;;;;;;;6.50;3.08;;;9.80;87.40;;;;;;4820223;29;20069;-70
2021/11/12 02:33:20;;;;;;;;;;;9.80;87.30;;;;;;4821345;29;20066;-70
2021/11/12 02:36:00;;;;;;;4.60;3.05;;;9.80;87.10;;;;;;4821304;29;20008;-70
2021/11/12 02:38:29;;;;;;;8.10;3.30;;;9.80;86.90;;;;;;4815406;29;20071;-70
2021/11/12 02:40:58;;;;;;;7.70;3.28;;;9.80;87.00;;;;;;4812796;29;20425;-70
2021/11/12 02:43:26;;;;;;;8.90;3.30;;;9.80;87.20;;;;;;4819338;29;20396;-70
2021/11/12 02:45:56;;;;;;;5.22;3.50;;;9.80;87.20;;;;;;4820232;29;20536;-70
2021/11/12 02:48:24;;;;;;;9.80;3.70;;;9.80;87.30;;;;;;4820574;29;20535;-70
2021/11/12 02:50:52;;;;;;;6.97;3.55;;;9.80;87.30;;;;;;4820358;29;20054;-70
2021/11/12 02:53:20;;;;;;;5.68;3.80;;;9.80;87.30;;;;;;4820113;29;20050;-70
2021/11/12 02:55:48;;;;;;;6.03;3.80;;;9.80;87.40;;;;;;4819493;29;20457;-70
2021/11/12 02:58:15;;;;;;;7.85;4.05;;;9.70;87.50;;;;;;4820945;29;20517;-70
2021/11/12 03:00:43;;;;;;;9.43;3.97;;;9.70;87.60;;;;;;4820031;29;20120;-70
2021/11/12 03:03:12;;;;;;;7.20;3.97;;;9.70;87.60;;;;;;4829755;29;20038;-70
2021/11/12 03:05:40;;;;;;;12.32;4.60;;;9.70;87.70;;;;;;4820394;29;20054;-71
2021/11/12 03:08:07;;;;;;;9.55;4.20;;;9.70;87.80;;;;;;4820067;29;20473;-71
2021/11/12 03:10:35;;;;;;;6.30;4.18;;;9.70;87.80;;;;;;4820153;29;20050;-71
2021/11/12 03:13:03;;;;;;;10.75;4.15;;;9.70;87.80;;;;;;4819728;29;20050;-71
2021/11/12 03:15:30;;;;;;;4.90;3.75;;;9.70;87.90;;;;;;4820724;29;20389;-71
2021/11/12 03:17:59;;;;;;;7.95;3.75;;;9.70;87.90;;;;;;4820061;29;20054;-71
2021/11/12 03:20:28;;;;;;;8.93;4.60;;;9.70;87.90;;;;;;4820220;29;20046;-71
2021/11/12 03:23:13;;;;;;;7.00;4.35;;;9.70;88.00;;;;;;4819830;29;20054;-72
2021/11/12 04:17:43;;;;;;;6.97;4.40;;;9.70;89.50;;;;;;4758276;30;20558;-71
2021/11/12 05:50:20;;;;;;;12.13;7.75;;;9.70;92.80;;;;;;4816041;29;20501;-77
2021/11/12 05:55:54;;;;;;;10.75;7.25;;;9.70;93.00;;;;;;4783655;30;20433;-76
2021/11/12 05:58:22;;;;;;;11.95;8.27;;;9.70;93.10;;;;;;4769773;30;20051;-75
2021/11/12 06:00:49;;;;;;;11.73;7.28;;;9.70;93.10;;;;;;4768527;30;20058;-75
2021/11/12 06:03:17;;;;;;;10.15;6.43;;;9.70;93.10;;;;;;4784459;30;20055;-76
2021/11/12 06:05:45;;;;;;;10.82;6.72;;;9.70;93.20;;;;;;4784489;30;20063;-77
2021/11/12 06:08:13;;;;;;;10.82;7.18;;;9.80;93.20;;;;;;4784586;30;20498;-76
2021/11/12 06:10:40;;;;;;;10.05;7.03;;;9.80;93.30;;;;;;4754928;30;20051;-77
2021/11/12 06:13:08;;;;;;;10.90;7.38;;;9.80;93.30;;;;;;4785153;30;20055;-77
2021/11/12 06:15:36;;;;;;;12.23;6.85;;;9.80;93.30;;;;;;4784743;30;20059;-77
2021/11/12 06:18:05;;;;;;;13.77;7.65;;;9.80;93.40;;;;;;4782041;30;20059;-78
2021/11/12 06:20:34;;;;;;;10.95;7.38;;;9.80;93.40;;;;;;4784429;30;20051;-77
2021/11/12 06:23:02;;;;;;;12.23;6.85;;;9.80;93.40;;;;;;4783649;30;20062;-76
2021/11/12 06:25:30;;;;;;;9.55;6.28;;;9.80;93.40;;;;;;4783887;30;20058;-76
2021/11/12 06:27:57;;;;;;;14.00;6.55;;;9.80;93.40;;;;;;4820383;29;20520;-76
2021/11/12 06:30:25;;;;;;;12.23;7.22;;;9.80;93.50;;;;;;4820809;29;20046;-77
2021/11/12 06:32:53;;;;;;;16.33;6.13;;;9.90;93.60;;;;;;4761040;29;1356955;-76
2021/11/12 06:35:24;;;;;;;10.73;6.10;;;9.90;93.70;;;;;;4823788;29;20051;-77
2021/11/12 06:37:51;;;;;;;9.52;6.25;;;10.00;93.70;;;;;;4822123;29;20053;-77
2021/11/12 06:40:20;;;;;;;11.00;6.05;;;10.00;93.80;;;;;;4825505;29;20042;-77
2021/11/12 06:51:16;;;;;;;9.10;6.55;;;10.10;93.80;;;;;;4799689;29;20063;-77
2021/11/12 06:53:50;;;;;;;12.15;4.93;;;10.10;93.80;;;;;;4790121;29;20048;-78
2021/11/12 06:56:20;;;;;;;9.70;5.40;;;10.20;93.80;;;;;;4787124;29;20398;-77
2021/11/12 06:58:48;;;;;;;8.10;5.50;;;10.20;93.80;;;;;;4793302;29;20055;-77
2021/11/12 07:01:17;;;;;;;11.18;5.18;;;10.20;93.80;;;;;;4789898;29;20059;-77
2021/11/12 07:03:45;;;;;;;10.63;4.72;;;10.20;93.90;;;;;;4790769;29;20067;-77
2021/11/12 07:06:13;;;;;;;7.22;4.18;;;10.20;93.80;;;;;;4790957;29;20080;-77
2021/11/12 07:08:41;;;;;;;8.35;4.40;;;10.20;93.80;;;;;;4788039;29;20066;-77
2021/11/12 07:11:09;;;;;;;10.50;4.18;;;10.20;93.80;;;;;;4799810;29;20540;-77
2021/11/12 07:13:37;;;;;;;12.07;4.57;;;10.10;93.90;;;;;;4802508;29;20063;-76
2021/11/12 07:16:05;;;;;;;11.45;4.50;;;10.10;93.80;;;;;;4794731;29;20051;-76
2021/11/12 07:18:32;;;;;;;8.25;3.75;;;10.10;93.90;;;;;;4789313;29;20168;-77
2021/11/12 07:21:00;;;;;;;10.10;4.15;;;10.10;94.00;;;;;;4785126;29;20051;-77
2021/11/12 07:23:28;;;;;;;15.32;4.68;;;10.10;94.00;;;;;;4785227;30;20076;-76
2021/11/12 07:25:56;;;;;;;10.93;3.97;;;10.10;94.00;;;;;;4807812;29;20505;-77
2021/11/12 07:28:26;;;;;;;8.20;3.65;;;10.10;94.00;;;;;;4821809;29;20059;-76
2021/11/12 07:30:55;;;;;;;6.68;3.80;;;10.10;94.00;;;;;;4824289;29;20126;-77
2021/11/12 07:33:24;;;;;;;7.53;3.60;;;10.10;94.00;;;;;;4822212;29;20058;-76
2021/11/12 07:35:55;;;;;;;8.75;3.83;;;10.10;94.00;;;;;;4816712;29;20437;-76
2021/11/12 07:39:08;;;;;;;6.68;4.15;;;10.20;94.00;;;;;;4816918;29;20046;-76
2021/11/12 07:49:00;;;;;;;14.82;4.93;;;10.30;94.00;;;;;;4821105;29;20540;-78
2021/11/12 07:51:27;;;;;;;8.90;4.32;;;10.30;94.00;;;;;;4809778;29;20406;-76
2021/11/12 07:53:56;;;;;;;9.70;4.75;;;10.30;93.90;;;;;;4804967;29;20490;-76
2021/11/12 07:56:25;;;;;;;10.82;4.68;;;10.30;93.90;;;;;;4819400;29;20053;-76
2021/11/12 07:58:53;;;;;;;10.93;4.05;;;10.30;93.90;;;;;;4813133;29;20054;-76
2021/11/12 08:01:21;;;;;;;9.60;4.10;;;10.40;93.90;;;;;;4823054;29;20061;-76
2021/11/12 08:03:53;;;;;;;9.18;3.80;;;10.40;93.80;;;;;;4821839;29;20097;-76
2021/11/12 08:06:22;;;;;;;10.98;3.90;;;10.40;93.80;;;;;;4835671;29;20050;-76
2021/11/12 08:09:03;;;;;;;12.50;3.70;;;10.50;93.80;;;;;;4821184;29;20511;-76
2021/11/12 08:19:43;;;;;;;8.60;2.80;;;10.60;93.80;;;;;;4767352;30;20112;-75
2021/11/12 08:22:24;;;;;;;11.45;3.30;;;10.60;93.80;;;;;;4759830;30;20150;-75
2021/11/12 08:32:59;;;;;;;12.48;3.22;;;10.80;93.70;;;;;;4755104;30;20056;-76
2021/11/12 08:43:26;;;;;;;11.25;2.45;;;10.90;93.40;;;;;;4769835;30;20063;-76
2021/11/12 08:48:28;;;;;;;12.85;2.60;;;10.90;93.30;;;;;;4769927;30;20064;-77
2021/11/12 08:50:55;;;;;;;16.45;2.92;;;10.90;93.30;;;;;;4769629;30;20051;-76
2021/11/12 08:53:23;;;;;;;19.73;3.70;;;10.90;93.30;;;;;;4780560;29;20540;-77
2021/11/12 08:55:50;;;;;;;17.15;2.50;;;11.00;93.20;;;;;;4825199;29;20050;-76
2021/11/12 08:58:18;;;;;;;12.05;2.88;;;11.00;93.10;;;;;;4825227;29;20089;-75
2021/11/12 09:00:46;;;;;;;14.93;2.60;;;11.10;93.10;;;;;;4825849;29;20501;-75
2021/11/12 09:03:14;;;;;;;20.92;3.03;;;11.10;93.00;;;;;;4825420;29;20065;-75
2021/11/12 09:05:41;;;;;;;20.60;3.47;;;11.10;93.00;;;;;;4809469;29;20054;-76
2021/11/12 09:08:09;;;;;;;12.00;2.70;;;11.20;93.00;;;;;;4825466;29;20070;-75
2021/11/12 09:10:37;;;;;;;22.52;2.95;;;11.30;92.80;;;;;;4825586;29;20050;-76
2021/11/12 09:13:16;;;;;;;15.10;2.45;;;11.30;92.70;;;;;;4825724;29;20073;-76
2021/11/12 09:15:52;;;;;;;21.10;3.47;;;11.40;92.50;;;;;;4825959;29;20050;-76
2021/11/12 09:18:24;;;;;;;15.70;2.85;;;11.50;92.20;;;;;;4825404;29;20058;-76
2021/11/12 09:20:52;;;;;;;18.85;3.50;;;11.50;91.70;;;;;;4824753;29;20412;-76
2021/11/12 09:23:19;;;;;;;22.00;3.30;;;11.60;91.30;;;;;;4825105;29;20062;-76
2021/11/12 09:25:47;;;;;;;29.45;3.47;;;11.50;91.30;;;;;;4824547;29;20065;-76
2021/11/12 09:28:15;;;;;;;26.02;4.72;;;11.50;91.00;;;;;;4824194;29;20046;-77
2021/11/12 09:30:44;;;;;;;27.60;4.10;;;11.50;91.00;;;;;;4808924;29;20050;-74
2021/11/12 09:33:12;;;;;;;23.48;3.17;;;11.50;90.90;;;;;;4808793;29;20062;-74
2021/11/12 09:35:39;;;;;;;23.50;3.65;;;11.40;91.00;;;;;;4825014;29;20058;-76
2021/11/12 09:38:07;;;;;;;24.20;3.30;;;11.40;91.10;;;;;;4825082;29;20485;-75
2021/11/12 09:40:35;;;;;;;22.40;3.35;;;11.30;91.20;;;;;;4824774;29;20081;-76
2021/11/12 09:43:04;;;;;;;24.58;3.90;;;11.40;91.30;;;;;;4825041;29;20053;-77
2021/11/12 09:45:32;;;;;;;20.77;3.58;;;11.40;91.40;;;;;;4824422;29;20054;-76
2021/11/12 09:47:59;;;;;;;17.38;3.75;;;11.40;91.50;;;;;;4825670;29;20054;-76
2021/11/12 09:50:30;;;;;;;28.42;3.92;;;11.40;91.50;;;;;;4808361;29;20520;-75
2021/11/12 09:53:00;;;;;;;27.80;4.13;;;11.40;91.60;;;;;;4825180;29;20050;-76
2021/11/12 09:55:30;;;;;;;30.45;3.97;;;11.40;91.60;;;;;;4809008;29;20046;-78
2021/11/12 09:58:01;;;;;;;37.60;4.82;;;11.50;91.30;;;;;;4824933;29;20066;-77
2021/11/12 10:00:31;;;;;;;29.35;4.75;;;11.50;91.10;;;;;;4823973;29;20255;-77
2021/11/12 10:03:01;;;;;;;31.98;4.88;;;11.60;91.00;;;;;;4808993;29;20057;-78
2021/11/12 10:05:47;;;;;;;27.08;4.40;;;11.60;90.90;;;;;;4824751;29;20389;-78
2021/11/12 10:08:23;;;;;;;34.42;4.50;;;11.60;90.20;;;;;;4825834;29;20050;-77
2021/11/12 10:11:20;;;;;;;30.98;4.30;;;11.70;90.20;;;;;;4827926;29;20054;-77
2021/11/12 10:13:48;;;;;;;30.88;4.80;;;11.80;89.90;;;;;;4824427;29;20069;-77
2021/11/12 10:19:13;;;;;;;30.17;4.63;;;11.90;89.80;;;;;;4825066;29;20054;-76
2021/11/12 10:22:03;;;;;;;34.22;4.38;;;11.90;89.50;;;;;;4824141;29;20413;-77
2021/11/12 10:24:42;;;;;;;28.23;4.63;;;11.80;89.60;;;;;;4823780;29;20062;-77
2021/11/12 10:27:14;;;;;;;36.17;5.55;;;11.80;89.70;;;;;;4823382;29;20058;-76
2021/11/12 10:29:46;;;;;;;24.42;4.72;;;11.80;89.70;;;;;;4824575;29;20508;-76
2021/11/12 10:32:20;;;;;;;37.20;5.05;;;11.70;89.80;;;;;;4824416;29;20054;-76
2021/11/12 10:34:50;;;;;;;36.10;5.95;;;11.70;89.90;;;;;;4807661;29;20382;-77
2021/11/12 10:37:25;;;;;;;41.92;5.18;;;11.70;90.00;;;;;;4824497;29;20500;-75
2021/11/12 10:39:57;;;;;;;40.03;5.00;;;11.80;90.00;;;;;;4823647;29;20058;-77
2021/11/12 10:42:28;;;;;;;36.25;6.00;;;11.80;89.60;;;;;;4808067;29;20077;-76
2021/11/12 10:45:07;;;;;;;43.47;5.63;;;11.80;89.40;;;;;;4823647;29;20054;-77
2021/11/12 10:47:53;;;;;;;41.97;5.53;;;11.90;89.40;;;;;;4824140;29;20058;-75
2021/11/12 10:50:27;;;;;;;30.58;5.65;;;11.80;89.50;;;;;;4823985;29;20362;-76
2021/11/12 10:53:06;;;;;;;33.33;5.15;;;12.00;89.70;;;;;;4824231;29;20042;-76
2021/11/12 10:55:35;;;;;;;29.60;5.00;;;12.10;89.60;;;;;;4824260;29;20055;-74
2021/11/12 10:58:08;;;;;;;37.92;5.28;;;12.20;89.50;;;;;;4823225;29;20062;-76
2021/11/12 11:00:42;;;;;;;28.85;4.60;;;12.30;89.10;;;;;;4810519;29;20055;-76
2021/11/12 11:03:16;;;;;;;31.42;5.43;;;12.30;88.90;;;;;;4821173;29;20066;-76
2021/11/12 11:05:49;;;;;;;36.50;5.50;;;12.20;88.50;;;;;;4822635;29;20046;-76
2021/11/12 11:08:20;;;;;;;36.83;5.18;;;12.20;88.50;;;;;;4823492;29;20065;-76
2021/11/12 11:11:05;;;;;;;39.45;5.85;;;12.10;88.30;;;;;;4807980;29;20429;-77
2021/11/12 11:13:38;;;;;;;30.63;5.57;;;12.20;87.60;;;;;;4822610;29;20054;-76
2021/11/12 11:16:08;;;;;;;30.88;4.65;;;12.30;87.50;;;;;;4823378;29;20042;-76
2021/11/12 11:18:50;;;;;;;35.33;5.32;;;12.30;87.50;;;;;;4823101;29;20081;-74
2021/11/12 11:24:09;;;;;;;25.33;3.95;;;12.60;86.00;;;;;;4807243;29;20437;-75
2021/11/12 11:26:47;;;;;;;27.40;4.35;;;12.60;85.20;;;;;;4822932;29;20421;-75
2021/11/12 11:29:23;;;;;;;23.70;4.07;;;12.60;85.20;;;;;;4823259;29;20521;-75
2021/11/12 11:31:54;;;;;;;16.80;3.30;;;12.60;85.00;;;;;;4837165;29;20402;-75
2021/11/12 11:34:23;;;;;;;15.27;3.17;;;12.60;84.70;;;;;;4823269;29;20409;-75
2021/11/12 11:36:55;;;;;;;15.30;3.17;;;12.60;84.30;;;;;;4837127;29;20069;-74
2021/11/12 11:39:23;;;;;;;17.63;3.10;;;12.60;84.80;;;;;;4823016;29;20520;-74
2021/11/12 11:41:51;;;;;;;14.93;2.75;;;12.50;84.50;;;;;;4823263;29;20050;-74
2021/11/12 11:44:19;;;;;;;19.30;3.60;;;12.60;84.30;;;;;;4822137;29;20058;-74
2021/11/12 11:46:51;;;;;;;20.52;3.58;;;12.70;84.10;;;;;;4821438;29;20523;-75
2021/11/12 11:49:23;;;;;;;19.63;3.67;;;12.70;83.70;;;;;;4822000;29;20061;-74
2021/11/12 11:52:01;;;;;;;17.40;2.90;;;12.80;83.50;;;;;;4823269;29;20065;-75
2021/11/12 11:54:43;;;;;;;17.92;3.28;;;12.90;83.30;;;;;;4826113;29;20676;-74
2021/11/12 11:57:14;;;;;;;18.17;3.20;;;13.10;82.60;;;;;;4839791;29;20054;-73
2021/11/12 11:59:44;;;;;;;30.95;3.47;;;13.20;82.60;;;;;;4825594;29;20058;-73
2021/11/12 12:02:17;;;;;;;17.63;3.30;;;13.30;81.50;;;;;;4825169;29;20517;-74
2021/11/12 12:04:49;;;;;;;;;;;13.30;81.80;;;;;;4825931;29;20080;-73
2021/11/12 12:07:40;;;;;;;19.02;3.17;;;13.30;81.60;;;;;;4825659;29;19924;-73
2021/11/12 12:10:16;;;;;;;20.70;3.53;;;13.20;81.80;;;;;;4825724;29;20149;-74
2021/11/12 12:12:49;;;;;;;19.40;3.50;;;13.10;81.80;;;;;;4824399;29;20058;-74
2021/11/12 12:15:20;;;;;;;;;;;13.10;81.90;;;;;;4825549;29;20317;-74
2021/11/12 12:18:07;;;;;;;16.30;2.92;;;13.20;81.00;;;;;;4824833;29;19925;-73
2021/11/12 12:20:55;;;;;;;12.00;1.88;;;13.20;81.00;;;;;;4824213;29;20054;-74
2021/11/12 12:32:59;;;;;;;12.63;2.13;;;13.00;80.70;;;;;;4824827;29;20063;-75
2021/11/12 13:25:35;;;;;;;17.95;2.83;;;13.00;83.10;;;;;;4824333;29;20169;-72
2021/11/12 13:28:27;;;;;;;13.77;2.35;;;13.00;83.10;;;;;;4823399;29;20501;-72
2021/11/12 13:30:59;;;;;;;7.47;2.03;;;13.10;83.00;;;;;;4824251;29;20417;-72
2021/11/12 13:33:36;;;;;;;12.45;2.17;;;13.10;82.90;;;;;;4824143;29;20062;-72
2021/11/12 13:36:08;;;;;;;10.20;1.70;;;13.10;82.80;;;;;;4823076;29;20073;-72
2021/11/12 13:38:46;;;;;;;15.45;1.90;;;13.10;82.80;;;;;;4823876;29;20054;-72
2021/11/12 13:41:19;;;;;;;8.07;1.27;;;13.10;82.90;;;;;;4824179;29;20057;-72
2021/11/12 13:43:49;;;;;;;8.55;1.55;;;13.10;82.50;;;;;;4822742;29;20066;-72
2021/11/12 13:46:17;;;;;;;8.88;1.50;;;13.20;82.50;;;;;;4822720;29;20046;-74
2021/11/12 13:48:48;;;;;;;5.15;1.23;;;13.20;82.50;;;;;;4824066;29;20062;-73
2021/11/12 13:51:34;;;;;;;10.23;1.77;;;13.20;82.70;;;;;;4823561;29;20058;-73
2021/11/12 13:54:04;;;;;;;4.72;0.80;;;13.20;82.70;;;;;;4823796;29;20050;-73
2021/11/12 13:56:36;;;;;;;10.70;1.48;;;13.30;82.80;;;;;;4823798;29;20046;-73
2021/11/12 13:59:14;;;;;;;11.75;1.25;;;13.40;82.30;;;;;;4824674;29;20057;-74
2021/11/12 14:01:42;;;;;;;10.52;1.90;;;13.40;82.20;;;;;;4824835;29;20426;-73
2021/11/12 14:04:27;;;;;;;6.63;1.30;;;13.50;81.70;;;;;;4824497;29;20481;-73
2021/11/12 14:06:55;;;;;;;5.85;1.05;;;13.50;81.70;;;;;;4838448;29;20065;-73
2021/11/12 14:09:29;;;;;;;6.18;1.27;;;13.50;81.70;;;;;;4822450;29;20521;-72
2021/11/12 14:12:03;;;;;;;6.38;1.33;;;13.50;81.70;;;;;;4823199;29;20057;-72
2021/11/12 14:14:33;;;;;;;7.13;1.58;;;13.30;82.10;;;;;;4823865;29;20073;-72
2021/11/12 14:17:19;;;;;;;6.95;1.23;;;13.30;82.30;;;;;;4822760;29;20501;-73
2021/11/12 14:28:37;;;;;;;6.32;1.08;;;13.00;83.90;;;;;;4824207;29;20404;-72
2021/11/12 14:33:46;;;;;;;6.07;1.60;;;12.90;84.00;;;;;;4823825;29;20497;-73
2021/11/12 14:39:05;;;;;;;6.57;1.20;;;12.90;84.10;;;;;;4824116;29;20062;-74
2021/11/12 14:41:59;;;;;;;;;;;12.90;84.20;;;;;;4824290;29;20050;-78
2021/11/12 14:47:05;;;;;;;9.57;1.40;;;12.90;84.50;;;;;;4823528;29;20062;-73
2021/11/12 14:52:08;;;;;;;9.77;1.35;;;13.00;84.80;;;;;;4823229;29;20064;-72
2021/11/12 14:54:45;;;;;;;7.45;1.42;;;13.00;84.70;;;;;;4837582;29;20070;-73
2021/11/12 14:59:48;;;;;;;6.30;1.10;;;13.00;84.90;;;;;;4823720;29;20050;-73
2021/11/12 15:02:16;;;;;;;6.75;1.23;;;13.00;85.00;;;;;;4823699;29;20532;-73
2021/11/12 15:04:45;;;;;;;5.45;1.05;;;12.90;85.10;;;;;;4823309;29;20528;-72
2021/11/12 15:07:14;;;;;;;3.97;1.20;;;12.90;85.30;;;;;;4822976;29;20061;-72
2021/11/12 15:09:42;;;;;;;8.77;1.15;;;12.80;85.40;;;;;;4823537;29;20047;-72
2021/11/12 15:12:11;;;;;;;4.10;1.10;;;12.80;85.50;;;;;;4823203;29;20077;-72
2021/11/12 15:14:45;;;;;;;6.75;1.40;;;12.80;85.90;;;;;;4823468;29;20050;-72
2021/11/12 15:17:13;;;;;;;6.82;1.27;;;12.70;86.10;;;;;;4822606;29;20057;-72
2021/11/12 15:19:45;;;;;;;8.70;1.30;;;12.60;86.40;;;;;;4827567;29;20050;-73
2021/11/12 15:27:26;;;;;;;7.88;1.60;;;12.50;86.90;;;;;;4820884;29;20532;-72
2021/11/12 15:32:28;;;;;;;8.10;1.52;;;12.30;87.70;;;;;;4822846;29;20046;-72
2021/11/12 15:35:08;;;;;;;13.38;1.67;;;12.30;88.10;;;;;;4819776;29;20059;-73
2021/11/12 15:40:21;;;;;;;10.15;1.70;;;12.20;88.80;;;;;;4804541;29;20066;-73
2021/11/12 15:48:13;;;;;;;12.88;2.20;;;12.00;89.60;;;;;;4832217;29;20058;-73
2021/11/12 16:14:21;;;;;;;17.27;2.63;;;12.00;90.10;;;;;;4804549;29;20058;-73
2021/11/12 16:19:42;;;;;;;16.58;2.22;;;12.00;90.00;;;;;;4823620;29;20062;-74
2021/11/12 16:22:30;;;;;;;15.05;2.00;;;12.00;89.80;;;;;;4822475;29;20054;-73
2021/11/12 16:27:26;;;;;;;16.85;3.05;;;12.00;89.80;;;;;;4806093;29;20074;-77
2021/11/12 16:29:55;;;;;;;14.25;2.10;;;12.00;89.90;;;;;;4804465;29;20050;-74
2021/11/12 16:32:27;;;;;;;15.18;2.58;;;12.00;89.90;;;;;;4804126;29;20409;-73
2021/11/12 16:35:00;;;;;;;21.65;2.97;;;12.00;90.00;;;;;;4811627;29;20428;-74
2021/11/12 16:37:30;;;;;;;18.02;2.25;;;12.00;90.00;;;;;;4830008;29;20062;-73
2021/11/12 16:40:17;;;;;;;18.00;2.50;;;12.00;90.00;;;;;;4821724;29;20050;-74
2021/11/12 17:11:25;;;;;;;9.75;2.08;;;12.00;89.00;;;;;;4825525;29;20062;-73
2021/11/12 17:46:51;;;;;;;8.75;2.05;;;11.30;89.10;;;;;;4794591;29;20070;-74
2021/11/12 18:03:14;;;;;;;6.00;1.50;;;11.40;88.10;;;;;;4797985;29;20051;-72
2021/11/12 18:13:55;;;;;;;1.55;0.70;;;11.40;87.60;;;;;;4806178;29;20520;-72
2021/11/12 18:22:07;;;;;;;3.28;0.93;;;11.30;87.30;;;;;;4805979;29;20062;-78
2021/11/12 21:45:02;;;;;;;7.97;0.90;;;11.20;84.90;;;;;;4819585;29;20050;-77
2021/11/12 21:47:29;;;;;;;3.88;0.70;;;11.20;85.00;;;;;;4821774;29;20081;-77
2021/11/12 21:49:58;;;;;;;6.97;0.88;;;11.20;85.10;;;;;;4816590;29;20528;-78
2021/11/12 21:52:25;;;;;;;5.35;0.70;;;11.20;85.30;;;;;;4817992;29;20405;-80
2021/11/12 21:54:53;;;;;;;7.97;1.50;;;11.10;85.40;;;;;;4817394;29;20058;-77
2021/11/12 21:57:21;;;;;;;6.32;0.82;;;11.10;85.60;;;;;;4818203;29;20058;-80
2021/11/12 21:59:48;;;;;;;8.00;1.10;;;11.00;85.80;;;;;;4823283;29;20057;-79
2021/11/12 22:02:18;;;;;;;11.43;1.90;;;11.00;86.10;;;;;;4824987;29;20050;-81
2021/11/12 22:04:46;;;;;;;6.35;1.05;;;10.90;86.30;;;;;;4823727;29;20509;-79
2021/11/12 22:07:14;;;;;;;5.85;1.58;;;10.90;86.50;;;;;;4822672;29;20501;-79
2021/11/12 22:09:42;;;;;;;8.95;1.25;;;10.90;86.80;;;;;;4823964;29;20058;-78
2021/11/12 22:12:10;;;;;;;5.68;1.02;;;10.80;87.00;;;;;;4813990;29;20042;-79
2021/11/12 22:14:38;;;;;;;8.13;1.20;;;10.80;87.20;;;;;;4816860;29;20051;-79
2021/11/12 22:17:08;;;;;;;7.50;1.23;;;10.70;87.30;;;;;;4829400;29;20059;-80
2021/11/12 22:19:40;;;;;;;11.65;1.48;;;10.70;87.60;;;;;;4806174;29;20059;-80
2021/11/12 22:22:09;;;;;;;7.75;1.35;;;10.70;87.90;;;;;;4823751;29;20046;-80
2021/11/12 22:24:37;;;;;;;3.95;1.10;;;10.60;88.00;;;;;;4823667;29;20049;-80
2021/11/12 22:27:05;;;;;;;8.65;1.60;;;10.60;88.20;;;;;;4821297;29;20054;-80
2021/11/12 22:29:33;;;;;;;8.25;1.52;;;10.60;88.20;;;;;;4823669;29;20405;-80
2021/11/12 22:32:18;;;;;;;6.93;1.05;;;10.70;88.20;;;;;;4815995;29;20432;-79
2021/11/12 22:34:46;;;;;;;7.40;1.30;;;10.70;88.30;;;;;;4810905;29;20062;-80
2021/11/12 22:37:17;;;;;;;4.95;1.10;;;10.70;88.10;;;;;;4823412;29;20054;-79
2021/11/12 22:39:45;;;;;;;7.43;1.17;;;10.70;88.10;;;;;;4825019;29;20497;-80
2021/11/12 22:42:13;;;;;;;9.10;1.15;;;10.70;88.10;;;;;;4807997;29;20081;-79
2021/11/12 22:44:41;;;;;;;12.45;1.40;;;10.70;88.10;;;;;;4824372;29;20057;-79
2021/11/12 22:47:10;;;;;;;5.20;1.05;;;10.70;88.30;;;;;;4823794;29;20386;-79
2021/11/12 22:49:38;;;;;;;8.85;1.20;;;10.70;88.50;;;;;;4823800;29;20058;-81
2021/11/12 22:52:06;;;;;;;5.63;0.90;;;10.70;88.80;;;;;;4791805;29;20042;-76
2021/11/12 22:54:37;;;;;;;10.13;1.58;;;10.60;89.10;;;;;;4823788;29;20062;-76
2021/11/12 22:57:06;;;;;;;11.63;1.33;;;10.50;89.40;;;;;;4823966;29;20512;-75
2021/11/12 22:59:33;;;;;;;11.90;1.35;;;10.40;89.70;;;;;;4814718;29;20054;-77
2021/11/12 23:02:01;;;;;;;8.10;1.33;;;10.40;90.00;;;;;;4817084;29;20050;-76
2021/11/12 23:04:29;;;;;;;11.82;1.45;;;10.30;90.20;;;;;;4814109;29;20051;-78
2021/11/12 23:06:56;;;;;;;10.45;1.10;;;10.30;90.40;;;;;;4806704;29;20054;-77
2021/11/12 23:09:28;;;;;;;9.38;1.10;;;10.30;90.50;;;;;;4823250;29;20062;-77
2021/11/12 23:11:56;;;;;;;7.90;1.13;;;10.30;90.70;;;;;;4826890;29;20073;-81
2021/11/12 23:14:24;;;;;;;9.02;1.60;;;10.30;90.80;;;;;;4837402;29;20061;-79
2021/11/12 23:16:54;;;;;;;8.70;1.80;;;10.30;90.90;;;;;;4823508;29;20054;-78
2021/11/12 23:19:22;;;;;;;8.38;1.35;;;10.30;91.00;;;;;;4831161;29;20046;-80
2021/11/12 23:21:50;;;;;;;5.07;1.10;;;10.30;91.10;;;;;;4831316;29;20053;-79
2021/11/12 23:24:18;;;;;;;9.32;1.55;;;10.30;91.10;;;;;;4824890;29;20058;-79
2021/11/12 23:26:46;;;;;;;8.40;1.42;;;10.30;91.10;;;;;;4826800;29;20046;-80
2021/11/12 23:29:13;;;;;;;7.65;1.05;;;10.30;91.20;;;;;;4813710;29;20509;-79
2021/11/12 23:31:41;;;;;;;9.85;1.55;;;10.30;91.10;;;;;;4814418;29;20056;-80
2021/11/12 23:34:09;;;;;;;11.18;1.58;;;10.30;91.10;;;;;;4818501;29;20073;-80
2021/11/12 23:36:37;;;;;;;12.20;1.90;;;10.30;91.20;;;;;;4780560;30;20047;-79
2021/11/12 23:39:04;;;;;;;14.93;1.60;;;10.40;91.20;;;;;;4789474;29;20075;-79
2021/11/12 23:41:32;;;;;;;8.70;1.40;;;10.40;91.20;;;;;;4804745;29;20059;-79